sensor_id;sensor_type;location;lat;lon;timestamp;P1;durP1;ratioP1;P2;durP2;ratioP2
68680;SDS011;55836;49.858;6.756;2023-03-14T00:01:09;7.17;;;2.50;;
68680;SDS011;55836;49.858;6.756;2023-03-14T00:03:35;8.27;;;2.30;;
68680;SDS011;55836;49.858;6.756;2023-03-14T00:06:02;10.67;;;2.53;;
68680;SDS011;55836;49.858;6.756;2023-03-14T00:08:28;10.43;;;2.87;;
68680;SDS011;55836;49.858;6.756;2023-03-14T00:10:54;5.87;;;2.40;;
68680;SDS011;55836;49.858;6.756;2023-03-14T00:13:22;8.70;;;2.40;;
68680;SDS011;55836;49.858;6.756;2023-03-14T00:15:48;7.63;;;2.40;;
68680;SDS011;55836;49.858;6.756;2023-03-14T00:18:15;9.73;;;2.63;;
68680;SDS011;55836;49.858;6.756;2023-03-14T00:20:41;9.93;;;2.40;;
68680;SDS011;55836;49.858;6.756;2023-03-14T00:23:07;7.27;;;2.20;;
68680;SDS011;55836;49.858;6.756;2023-03-14T00:25:33;10.73;;;3.30;;
68680;SDS011;55836;49.858;6.756;2023-03-14T00:28:00;15.30;;;3.70;;
68680;SDS011;55836;49.858;6.756;2023-03-14T00:30:26;9.10;;;3.17;;
68680;SDS011;55836;49.858;6.756;2023-03-14T00:32:52;9.40;;;2.80;;
68680;SDS011;55836;49.858;6.756;2023-03-14T00:35:18;11.17;;;2.73;;
68680;SDS011;55836;49.858;6.756;2023-03-14T00:37:44;11.43;;;3.43;;
68680;SDS011;55836;49.858;6.756;2023-03-14T00:40:10;9.57;;;2.33;;
68680;SDS011;55836;49.858;6.756;2023-03-14T00:42:36;9.10;;;3.40;;
68680;SDS011;55836;49.858;6.756;2023-03-14T00:45:02;10.73;;;2.67;;
68680;SDS011;55836;49.858;6.756;2023-03-14T00:47:28;10.07;;;3.17;;
68680;SDS011;55836;49.858;6.756;2023-03-14T00:49:54;12.47;;;2.83;;
68680;SDS011;55836;49.858;6.756;2023-03-14T00:52:22;8.80;;;2.73;;
68680;SDS011;55836;49.858;6.756;2023-03-14T00:54:48;11.03;;;3.03;;
68680;SDS011;55836;49.858;6.756;2023-03-14T00:57:14;11.03;;;3.43;;
68680;SDS011;55836;49.858;6.756;2023-03-14T00:59:40;14.77;;;2.80;;
68680;SDS011;55836;49.858;6.756;2023-03-14T01:02:06;8.93;;;2.43;;
68680;SDS011;55836;49.858;6.756;2023-03-14T01:04:32;6.83;;;2.87;;
68680;SDS011;55836;49.858;6.756;2023-03-14T01:06:58;6.80;;;3.37;;
68680;SDS011;55836;49.858;6.756;2023-03-14T01:09:24;8.40;;;2.37;;
68680;SDS011;55836;49.858;6.756;2023-03-14T01:11:50;10.63;;;2.47;;
68680;SDS011;55836;49.858;6.756;2023-03-14T01:14:16;5.73;;;2.63;;
68680;SDS011;55836;49.858;6.756;2023-03-14T01:16:42;10.87;;;3.10;;
68680;SDS011;55836;49.858;6.756;2023-03-14T01:19:08;8.40;;;2.27;;
68680;SDS011;55836;49.858;6.756;2023-03-14T01:21:34;12.10;;;2.60;;
68680;SDS011;55836;49.858;6.756;2023-03-14T01:24:01;10.33;;;2.97;;
68680;SDS011;55836;49.858;6.756;2023-03-14T01:26:29;9.00;;;3.27;;
68680;SDS011;55836;49.858;6.756;2023-03-14T01:28:55;8.30;;;3.00;;
68680;SDS011;55836;49.858;6.756;2023-03-14T01:31:22;9.20;;;2.67;;
68680;SDS011;55836;49.858;6.756;2023-03-14T01:33:48;12.60;;;2.90;;
68680;SDS011;55836;49.858;6.756;2023-03-14T01:36:14;13.10;;;3.00;;
68680;SDS011;55836;49.858;6.756;2023-03-14T01:38:41;7.20;;;3.30;;
68680;SDS011;55836;49.858;6.756;2023-03-14T01:41:07;10.27;;;2.67;;
68680;SDS011;55836;49.858;6.756;2023-03-14T01:43:34;12.80;;;2.93;;
68680;SDS011;55836;49.858;6.756;2023-03-14T01:51:19;8.17;;;3.07;;
68680;SDS011;55836;49.858;6.756;2023-03-14T01:53:47;12.87;;;2.63;;
68680;SDS011;55836;49.858;6.756;2023-03-14T01:56:14;7.07;;;2.50;;
68680;SDS011;55836;49.858;6.756;2023-03-14T01:58:42;7.90;;;2.17;;
68680;SDS011;55836;49.858;6.756;2023-03-14T02:01:09;11.73;;;2.80;;
68680;SDS011;55836;49.858;6.756;2023-03-14T02:03:38;10.80;;;3.10;;
68680;SDS011;55836;49.858;6.756;2023-03-14T02:06:06;8.63;;;2.77;;
68680;SDS011;55836;49.858;6.756;2023-03-14T02:08:33;9.57;;;3.53;;
68680;SDS011;55836;49.858;6.756;2023-03-14T02:11:01;8.27;;;2.50;;
68680;SDS011;55836;49.858;6.756;2023-03-14T02:13:27;9.53;;;2.70;;
68680;SDS011;55836;49.858;6.756;2023-03-14T02:15:53;10.13;;;2.57;;
68680;SDS011;55836;49.858;6.756;2023-03-14T02:18:19;10.53;;;2.43;;
68680;SDS011;55836;49.858;6.756;2023-03-14T02:20:50;8.30;;;2.40;;
68680;SDS011;55836;49.858;6.756;2023-03-14T02:23:43;9.50;;;2.37;;
68680;SDS011;55836;49.858;6.756;2023-03-14T02:28:46;8.03;;;2.20;;
68680;SDS011;55836;49.858;6.756;2023-03-14T02:31:13;6.77;;;2.47;;
68680;SDS011;55836;49.858;6.756;2023-03-14T02:33:39;8.60;;;2.13;;
68680;SDS011;55836;49.858;6.756;2023-03-14T02:36:06;8.40;;;2.80;;
68680;SDS011;55836;49.858;6.756;2023-03-14T02:39:16;8.20;;;2.37;;
68680;SDS011;55836;49.858;6.756;2023-03-14T02:41:22;8.37;;;2.00;;
68680;SDS011;55836;49.858;6.756;2023-03-14T02:43:48;5.40;;;2.03;;
68680;SDS011;55836;49.858;6.756;2023-03-14T02:46:16;9.43;;;2.83;;
68680;SDS011;55836;49.858;6.756;2023-03-14T02:48:45;6.73;;;1.80;;
68680;SDS011;55836;49.858;6.756;2023-03-14T02:51:12;10.03;;;2.77;;
68680;SDS011;55836;49.858;6.756;2023-03-14T02:53:39;9.20;;;2.50;;
68680;SDS011;55836;49.858;6.756;2023-03-14T02:56:07;7.30;;;2.73;;
68680;SDS011;55836;49.858;6.756;2023-03-14T02:58:34;6.63;;;2.70;;
68680;SDS011;55836;49.858;6.756;2023-03-14T03:01:00;9.37;;;2.20;;
68680;SDS011;55836;49.858;6.756;2023-03-14T03:03:26;10.93;;;2.80;;
68680;SDS011;55836;49.858;6.756;2023-03-14T03:05:53;8.27;;;2.57;;
68680;SDS011;55836;49.858;6.756;2023-03-14T03:08:20;7.23;;;2.53;;
68680;SDS011;55836;49.858;6.756;2023-03-14T03:10:47;11.23;;;2.23;;
68680;SDS011;55836;49.858;6.756;2023-03-14T03:13:13;7.23;;;2.43;;
68680;SDS011;55836;49.858;6.756;2023-03-14T03:15:39;10.50;;;2.40;;
68680;SDS011;55836;49.858;6.756;2023-03-14T03:18:06;10.53;;;2.70;;
68680;SDS011;55836;49.858;6.756;2023-03-14T03:20:32;8.77;;;2.50;;
68680;SDS011;55836;49.858;6.756;2023-03-14T03:22:58;6.97;;;1.80;;
68680;SDS011;55836;49.858;6.756;2023-03-14T03:25:25;10.73;;;2.53;;
68680;SDS011;55836;49.858;6.756;2023-03-14T03:27:51;14.40;;;2.40;;
68680;SDS011;55836;49.858;6.756;2023-03-14T03:30:17;5.67;;;1.93;;
68680;SDS011;55836;49.858;6.756;2023-03-14T03:32:43;9.27;;;2.30;;
68680;SDS011;55836;49.858;6.756;2023-03-14T03:35:09;12.30;;;2.93;;
68680;SDS011;55836;49.858;6.756;2023-03-14T03:37:35;11.93;;;3.27;;
68680;SDS011;55836;49.858;6.756;2023-03-14T03:40:02;6.17;;;1.97;;
68680;SDS011;55836;49.858;6.756;2023-03-14T03:42:31;7.03;;;2.00;;
68680;SDS011;55836;49.858;6.756;2023-03-14T03:44:57;9.33;;;2.23;;
68680;SDS011;55836;49.858;6.756;2023-03-14T03:47:23;4.63;;;1.93;;
68680;SDS011;55836;49.858;6.756;2023-03-14T03:49:49;7.77;;;1.80;;
68680;SDS011;55836;49.858;6.756;2023-03-14T03:52:15;6.47;;;2.00;;
68680;SDS011;55836;49.858;6.756;2023-03-14T03:54:41;10.80;;;2.00;;
68680;SDS011;55836;49.858;6.756;2023-03-14T03:57:07;6.87;;;1.43;;
68680;SDS011;55836;49.858;6.756;2023-03-14T03:59:33;4.03;;;1.50;;
68680;SDS011;55836;49.858;6.756;2023-03-14T04:01:59;5.70;;;1.70;;
68680;SDS011;55836;49.858;6.756;2023-03-14T04:04:25;4.33;;;1.70;;
68680;SDS011;55836;49.858;6.756;2023-03-14T04:06:51;6.40;;;2.03;;
68680;SDS011;55836;49.858;6.756;2023-03-14T04:09:17;7.00;;;1.90;;
68680;SDS011;55836;49.858;6.756;2023-03-14T04:11:43;9.03;;;2.50;;
68680;SDS011;55836;49.858;6.756;2023-03-14T04:14:09;6.30;;;1.93;;
68680;SDS011;55836;49.858;6.756;2023-03-14T04:16:35;5.63;;;2.27;;
68680;SDS011;55836;49.858;6.756;2023-03-14T04:19:02;9.63;;;1.73;;
68680;SDS011;55836;49.858;6.756;2023-03-14T04:21:28;5.90;;;1.60;;
68680;SDS011;55836;49.858;6.756;2023-03-14T04:23:54;6.03;;;1.90;;
68680;SDS011;55836;49.858;6.756;2023-03-14T04:26:20;3.63;;;1.83;;
68680;SDS011;55836;49.858;6.756;2023-03-14T04:28:46;5.33;;;1.97;;
68680;SDS011;55836;49.858;6.756;2023-03-14T04:31:14;7.77;;;2.30;;
68680;SDS011;55836;49.858;6.756;2023-03-14T04:33:40;6.57;;;2.00;;
68680;SDS011;55836;49.858;6.756;2023-03-14T04:36:07;6.57;;;1.67;;
68680;SDS011;55836;49.858;6.756;2023-03-14T04:38:33;5.90;;;1.53;;
68680;SDS011;55836;49.858;6.756;2023-03-14T04:40:59;4.17;;;1.47;;
68680;SDS011;55836;49.858;6.756;2023-03-14T04:43:25;6.43;;;2.00;;
68680;SDS011;55836;49.858;6.756;2023-03-14T04:45:55;6.27;;;1.47;;
68680;SDS011;55836;49.858;6.756;2023-03-14T04:48:22;4.33;;;1.20;;
68680;SDS011;55836;49.858;6.756;2023-03-14T04:50:48;7.83;;;1.50;;
68680;SDS011;55836;49.858;6.756;2023-03-14T04:53:15;7.80;;;1.60;;
68680;SDS011;55836;49.858;6.756;2023-03-14T04:55:42;3.50;;;1.30;;
68680;SDS011;55836;49.858;6.756;2023-03-14T04:58:08;5.70;;;1.20;;
68680;SDS011;55836;49.858;6.756;2023-03-14T05:00:34;3.73;;;1.40;;
68680;SDS011;55836;49.858;6.756;2023-03-14T05:03:00;4.53;;;1.33;;
68680;SDS011;55836;49.858;6.756;2023-03-14T05:05:26;4.70;;;1.20;;
68680;SDS011;55836;49.858;6.756;2023-03-14T05:07:52;3.73;;;1.20;;
68680;SDS011;55836;49.858;6.756;2023-03-14T05:10:18;5.17;;;1.20;;
68680;SDS011;55836;49.858;6.756;2023-03-14T05:12:44;4.87;;;1.47;;
68680;SDS011;55836;49.858;6.756;2023-03-14T05:15:10;3.70;;;1.30;;
68680;SDS011;55836;49.858;6.756;2023-03-14T05:17:36;7.87;;;2.10;;
68680;SDS011;55836;49.858;6.756;2023-03-14T05:20:03;8.83;;;2.27;;
68680;SDS011;55836;49.858;6.756;2023-03-14T05:22:37;3.83;;;1.57;;
68680;SDS011;55836;49.858;6.756;2023-03-14T05:25:03;4.77;;;1.47;;
68680;SDS011;55836;49.858;6.756;2023-03-14T05:27:29;4.77;;;1.80;;
68680;SDS011;55836;49.858;6.756;2023-03-14T05:29:56;3.47;;;1.83;;
68680;SDS011;55836;49.858;6.756;2023-03-14T05:32:22;6.10;;;1.90;;
68680;SDS011;55836;49.858;6.756;2023-03-14T05:34:48;9.47;;;3.27;;
68680;SDS011;55836;49.858;6.756;2023-03-14T05:37:14;7.97;;;2.20;;
68680;SDS011;55836;49.858;6.756;2023-03-14T05:39:40;4.27;;;2.00;;
68680;SDS011;55836;49.858;6.756;2023-03-14T05:42:06;5.43;;;1.77;;
68680;SDS011;55836;49.858;6.756;2023-03-14T05:44:32;7.00;;;1.57;;
68680;SDS011;55836;49.858;6.756;2023-03-14T05:46:58;9.97;;;1.80;;
68680;SDS011;55836;49.858;6.756;2023-03-14T05:49:24;9.23;;;2.00;;
68680;SDS011;55836;49.858;6.756;2023-03-14T05:51:50;7.47;;;2.10;;
68680;SDS011;55836;49.858;6.756;2023-03-14T05:54:16;8.10;;;1.60;;
68680;SDS011;55836;49.858;6.756;2023-03-14T05:56:43;2.90;;;1.70;;
68680;SDS011;55836;49.858;6.756;2023-03-14T05:59:09;4.63;;;1.70;;
68680;SDS011;55836;49.858;6.756;2023-03-14T06:01:35;6.80;;;2.10;;
68680;SDS011;55836;49.858;6.756;2023-03-14T06:04:01;6.93;;;2.23;;
68680;SDS011;55836;49.858;6.756;2023-03-14T06:06:27;4.73;;;1.80;;
68680;SDS011;55836;49.858;6.756;2023-03-14T06:08:53;7.47;;;2.17;;
68680;SDS011;55836;49.858;6.756;2023-03-14T06:11:19;5.23;;;2.07;;
68680;SDS011;55836;49.858;6.756;2023-03-14T06:13:45;7.00;;;2.00;;
68680;SDS011;55836;49.858;6.756;2023-03-14T06:16:11;6.80;;;3.37;;
68680;SDS011;55836;49.858;6.756;2023-03-14T06:18:38;4.80;;;1.50;;
68680;SDS011;55836;49.858;6.756;2023-03-14T06:21:04;6.57;;;2.50;;
68680;SDS011;55836;49.858;6.756;2023-03-14T06:23:30;7.60;;;2.87;;
68680;SDS011;55836;49.858;6.756;2023-03-14T06:25:56;9.57;;;4.23;;
68680;SDS011;55836;49.858;6.756;2023-03-14T06:28:23;8.97;;;4.90;;
68680;SDS011;55836;49.858;6.756;2023-03-14T06:30:49;3.67;;;1.40;;
68680;SDS011;55836;49.858;6.756;2023-03-14T06:33:15;9.27;;;2.03;;
68680;SDS011;55836;49.858;6.756;2023-03-14T06:35:41;5.90;;;1.67;;
68680;SDS011;55836;49.858;6.756;2023-03-14T06:38:07;5.67;;;1.60;;
68680;SDS011;55836;49.858;6.756;2023-03-14T06:40:33;3.87;;;1.40;;
68680;SDS011;55836;49.858;6.756;2023-03-14T06:42:59;3.37;;;1.93;;
68680;SDS011;55836;49.858;6.756;2023-03-14T06:45:25;5.43;;;2.50;;
68680;SDS011;55836;49.858;6.756;2023-03-14T06:47:51;4.13;;;1.50;;
68680;SDS011;55836;49.858;6.756;2023-03-14T06:50:17;2.20;;;1.33;;
68680;SDS011;55836;49.858;6.756;2023-03-14T06:52:43;3.83;;;1.70;;
68680;SDS011;55836;49.858;6.756;2023-03-14T06:55:13;4.13;;;2.80;;
68680;SDS011;55836;49.858;6.756;2023-03-14T06:57:39;1.67;;;1.10;;
68680;SDS011;55836;49.858;6.756;2023-03-14T07:00:05;1.50;;;1.30;;
68680;SDS011;55836;49.858;6.756;2023-03-14T07:02:31;4.93;;;1.50;;
68680;SDS011;55836;49.858;6.756;2023-03-14T07:04:57;4.20;;;1.50;;
68680;SDS011;55836;49.858;6.756;2023-03-14T07:07:24;4.10;;;1.57;;
68680;SDS011;55836;49.858;6.756;2023-03-14T07:09:50;3.10;;;1.50;;
68680;SDS011;55836;49.858;6.756;2023-03-14T07:12:16;2.97;;;1.40;;
68680;SDS011;55836;49.858;6.756;2023-03-14T07:14:42;3.37;;;1.60;;
68680;SDS011;55836;49.858;6.756;2023-03-14T07:17:08;2.70;;;1.77;;
68680;SDS011;55836;49.858;6.756;2023-03-14T07:19:34;3.83;;;1.63;;
68680;SDS011;55836;49.858;6.756;2023-03-14T07:22:00;2.63;;;1.93;;
68680;SDS011;55836;49.858;6.756;2023-03-14T07:24:26;2.70;;;1.30;;
68680;SDS011;55836;49.858;6.756;2023-03-14T07:26:52;4.80;;;1.27;;
68680;SDS011;55836;49.858;6.756;2023-03-14T07:29:18;5.17;;;1.30;;
68680;SDS011;55836;49.858;6.756;2023-03-14T07:31:47;6.63;;;2.87;;
68680;SDS011;55836;49.858;6.756;2023-03-14T07:34:13;3.77;;;1.50;;
68680;SDS011;55836;49.858;6.756;2023-03-14T07:36:39;3.57;;;1.47;;
68680;SDS011;55836;49.858;6.756;2023-03-14T07:39:05;6.20;;;1.80;;
68680;SDS011;55836;49.858;6.756;2023-03-14T07:41:31;3.20;;;2.00;;
68680;SDS011;55836;49.858;6.756;2023-03-14T07:43:57;4.63;;;1.83;;
68680;SDS011;55836;49.858;6.756;2023-03-14T07:46:23;3.87;;;2.00;;
68680;SDS011;55836;49.858;6.756;2023-03-14T07:48:49;4.73;;;1.70;;
68680;SDS011;55836;49.858;6.756;2023-03-14T07:51:15;4.37;;;1.43;;
68680;SDS011;55836;49.858;6.756;2023-03-14T07:53:41;5.27;;;1.30;;
68680;SDS011;55836;49.858;6.756;2023-03-14T07:56:08;4.13;;;1.33;;
68680;SDS011;55836;49.858;6.756;2023-03-14T07:58:34;2.07;;;1.40;;
68680;SDS011;55836;49.858;6.756;2023-03-14T08:01:00;1.50;;;1.10;;
68680;SDS011;55836;49.858;6.756;2023-03-14T08:03:26;2.27;;;1.27;;
68680;SDS011;55836;49.858;6.756;2023-03-14T08:05:52;1.73;;;1.00;;
68680;SDS011;55836;49.858;6.756;2023-03-14T08:08:18;2.77;;;1.00;;
68680;SDS011;55836;49.858;6.756;2023-03-14T08:10:44;3.37;;;1.13;;
68680;SDS011;55836;49.858;6.756;2023-03-14T08:13:11;0.90;;;0.90;;
68680;SDS011;55836;49.858;6.756;2023-03-14T08:15:37;2.50;;;1.00;;
68680;SDS011;55836;49.858;6.756;2023-03-14T08:18:03;2.47;;;0.87;;
68680;SDS011;55836;49.858;6.756;2023-03-14T08:20:30;1.83;;;1.00;;
68680;SDS011;55836;49.858;6.756;2023-03-14T08:22:56;2.37;;;0.93;;
68680;SDS011;55836;49.858;6.756;2023-03-14T08:25:22;1.53;;;1.00;;
68680;SDS011;55836;49.858;6.756;2023-03-14T08:27:48;2.07;;;0.80;;
68680;SDS011;55836;49.858;6.756;2023-03-14T08:30:15;1.87;;;0.90;;
68680;SDS011;55836;49.858;6.756;2023-03-14T08:32:41;2.40;;;1.10;;
68680;SDS011;55836;49.858;6.756;2023-03-14T08:35:08;3.13;;;0.93;;
68680;SDS011;55836;49.858;6.756;2023-03-14T08:37:34;2.57;;;1.50;;
68680;SDS011;55836;49.858;6.756;2023-03-14T08:40:01;4.33;;;0.90;;
68680;SDS011;55836;49.858;6.756;2023-03-14T08:42:31;1.90;;;0.77;;
68680;SDS011;55836;49.858;6.756;2023-03-14T08:44:57;1.77;;;0.80;;
68680;SDS011;55836;49.858;6.756;2023-03-14T08:47:23;1.20;;;0.97;;
68680;SDS011;55836;49.858;6.756;2023-03-14T08:49:49;1.43;;;1.03;;
68680;SDS011;55836;49.858;6.756;2023-03-14T08:52:15;2.10;;;1.30;;
68680;SDS011;55836;49.858;6.756;2023-03-14T08:57:12;2.20;;;0.70;;
68680;SDS011;55836;49.858;6.756;2023-03-14T08:59:38;2.33;;;0.90;;
68680;SDS011;55836;49.858;6.756;2023-03-14T09:02:04;2.10;;;0.87;;
68680;SDS011;55836;49.858;6.756;2023-03-14T09:04:31;1.23;;;1.13;;
68680;SDS011;55836;49.858;6.756;2023-03-14T09:06:57;2.77;;;0.80;;
68680;SDS011;55836;49.858;6.756;2023-03-14T09:09:24;1.40;;;0.80;;
68680;SDS011;55836;49.858;6.756;2023-03-14T09:11:51;1.60;;;0.83;;
68680;SDS011;55836;49.858;6.756;2023-03-14T09:14:17;0.90;;;0.70;;
68680;SDS011;55836;49.858;6.756;2023-03-14T09:16:43;1.13;;;1.00;;
68680;SDS011;55836;49.858;6.756;2023-03-14T09:19:09;1.43;;;0.70;;
68680;SDS011;55836;49.858;6.756;2023-03-14T09:21:35;0.90;;;0.70;;
68680;SDS011;55836;49.858;6.756;2023-03-14T09:24:03;2.03;;;0.80;;
68680;SDS011;55836;49.858;6.756;2023-03-14T09:26:29;1.17;;;0.73;;
68680;SDS011;55836;49.858;6.756;2023-03-14T09:28:56;1.90;;;0.70;;
68680;SDS011;55836;49.858;6.756;2023-03-14T09:31:22;2.00;;;0.83;;
68680;SDS011;55836;49.858;6.756;2023-03-14T09:33:48;2.73;;;0.70;;
68680;SDS011;55836;49.858;6.756;2023-03-14T09:36:14;0.80;;;0.60;;
68680;SDS011;55836;49.858;6.756;2023-03-14T09:38:40;1.07;;;0.83;;
68680;SDS011;55836;49.858;6.756;2023-03-14T09:41:21;1.00;;;0.70;;
68680;SDS011;55836;49.858;6.756;2023-03-14T09:43:48;2.00;;;0.77;;
68680;SDS011;55836;49.858;6.756;2023-03-14T09:46:16;0.90;;;0.70;;
68680;SDS011;55836;49.858;6.756;2023-03-14T09:48:42;0.80;;;0.73;;
68680;SDS011;55836;49.858;6.756;2023-03-14T09:51:13;0.73;;;0.67;;
68680;SDS011;55836;49.858;6.756;2023-03-14T09:53:40;1.10;;;0.87;;
68680;SDS011;55836;49.858;6.756;2023-03-14T09:56:12;1.43;;;0.70;;
68680;SDS011;55836;49.858;6.756;2023-03-14T09:58:39;0.80;;;0.80;;
68680;SDS011;55836;49.858;6.756;2023-03-14T10:01:07;0.60;;;0.60;;
68680;SDS011;55836;49.858;6.756;2023-03-14T10:03:35;0.53;;;0.53;;
68680;SDS011;55836;49.858;6.756;2023-03-14T10:06:01;0.50;;;0.50;;
68680;SDS011;55836;49.858;6.756;2023-03-14T10:08:27;0.40;;;0.40;;
68680;SDS011;55836;49.858;6.756;2023-03-14T10:10:53;1.03;;;0.50;;
68680;SDS011;55836;49.858;6.756;2023-03-14T10:15:48;0.50;;;0.50;;
68680;SDS011;55836;49.858;6.756;2023-03-14T10:18:14;0.47;;;0.47;;
68680;SDS011;55836;49.858;6.756;2023-03-14T10:20:41;0.50;;;0.50;;
68680;SDS011;55836;49.858;6.756;2023-03-14T10:25:38;0.80;;;0.77;;
68680;SDS011;55836;49.858;6.756;2023-03-14T10:28:05;0.50;;;0.50;;
68680;SDS011;55836;49.858;6.756;2023-03-14T10:31:05;2.10;;;0.60;;
68680;SDS011;55836;49.858;6.756;2023-03-14T10:33:28;1.07;;;0.60;;
68680;SDS011;55836;49.858;6.756;2023-03-14T10:35:56;0.60;;;0.60;;
68680;SDS011;55836;49.858;6.756;2023-03-14T10:38:23;1.03;;;0.80;;
68680;SDS011;55836;49.858;6.756;2023-03-14T10:40:51;0.83;;;0.50;;
68680;SDS011;55836;49.858;6.756;2023-03-14T10:43:28;0.70;;;0.70;;
68680;SDS011;55836;49.858;6.756;2023-03-14T10:46:08;1.10;;;1.10;;
68680;SDS011;55836;49.858;6.756;2023-03-14T10:48:38;0.87;;;0.87;;
68680;SDS011;55836;49.858;6.756;2023-03-14T10:51:08;0.60;;;0.60;;
68680;SDS011;55836;49.858;6.756;2023-03-14T10:56:07;0.80;;;0.80;;
68680;SDS011;55836;49.858;6.756;2023-03-14T10:58:35;0.97;;;0.97;;
68680;SDS011;55836;49.858;6.756;2023-03-14T11:01:18;0.70;;;0.70;;
68680;SDS011;55836;49.858;6.756;2023-03-14T11:03:51;1.00;;;0.77;;
68680;SDS011;55836;49.858;6.756;2023-03-14T11:06:23;0.80;;;0.80;;
68680;SDS011;55836;49.858;6.756;2023-03-14T11:09:00;0.70;;;0.70;;
68680;SDS011;55836;49.858;6.756;2023-03-14T11:11:30;0.80;;;0.80;;
68680;SDS011;55836;49.858;6.756;2023-03-14T11:16:25;1.10;;;1.00;;
68680;SDS011;55836;49.858;6.756;2023-03-14T11:28:50;1.43;;;1.00;;
68680;SDS011;55836;49.858;6.756;2023-03-14T11:31:26;2.20;;;1.40;;
68680;SDS011;55836;49.858;6.756;2023-03-14T11:36:27;1.47;;;1.37;;
68680;SDS011;55836;49.858;6.756;2023-03-14T11:38:55;1.07;;;1.00;;
68680;SDS011;55836;49.858;6.756;2023-03-14T11:41:23;1.53;;;1.20;;
68680;SDS011;55836;49.858;6.756;2023-03-14T11:43:54;2.47;;;0.90;;
68680;SDS011;55836;49.858;6.756;2023-03-14T11:51:35;0.80;;;0.80;;
68680;SDS011;55836;49.858;6.756;2023-03-14T11:56:36;0.70;;;0.70;;
68680;SDS011;55836;49.858;6.756;2023-03-14T11:59:14;0.80;;;0.73;;
68680;SDS011;55836;49.858;6.756;2023-03-14T12:04:40;1.53;;;0.80;;
68680;SDS011;55836;49.858;6.756;2023-03-14T12:09:58;0.80;;;0.80;;
68680;SDS011;55836;49.858;6.756;2023-03-14T12:12:25;3.83;;;2.37;;
68680;SDS011;55836;49.858;6.756;2023-03-14T12:14:54;0.97;;;0.93;;
68680;SDS011;55836;49.858;6.756;2023-03-14T12:17:25;1.20;;;1.10;;
68680;SDS011;55836;49.858;6.756;2023-03-14T12:22:50;5.30;;;1.57;;
68680;SDS011;55836;49.858;6.756;2023-03-14T12:25:18;1.57;;;1.07;;
68680;SDS011;55836;49.858;6.756;2023-03-14T12:30:23;1.30;;;1.17;;
68680;SDS011;55836;49.858;6.756;2023-03-14T12:38:02;3.23;;;1.30;;
68680;SDS011;55836;49.858;6.756;2023-03-14T12:40:32;3.97;;;1.90;;
68680;SDS011;55836;49.858;6.756;2023-03-14T12:43:01;2.60;;;1.40;;
68680;SDS011;55836;49.858;6.756;2023-03-14T12:45:31;2.57;;;1.47;;
68680;SDS011;55836;49.858;6.756;2023-03-14T12:55:39;2.70;;;1.00;;
68680;SDS011;55836;49.858;6.756;2023-03-14T13:01:01;1.07;;;0.90;;
68680;SDS011;55836;49.858;6.756;2023-03-14T13:03:38;1.33;;;0.90;;
68680;SDS011;55836;49.858;6.756;2023-03-14T13:06:05;1.00;;;0.90;;
68680;SDS011;55836;49.858;6.756;2023-03-14T13:08:32;1.20;;;0.90;;
68680;SDS011;55836;49.858;6.756;2023-03-14T13:10:59;2.30;;;0.90;;
68680;SDS011;55836;49.858;6.756;2023-03-14T13:13:25;3.80;;;0.93;;
68680;SDS011;55836;49.858;6.756;2023-03-14T13:15:56;1.33;;;0.90;;
68680;SDS011;55836;49.858;6.756;2023-03-14T13:18:30;1.67;;;1.30;;
68680;SDS011;55836;49.858;6.756;2023-03-14T13:21:20;2.20;;;1.23;;
68680;SDS011;55836;49.858;6.756;2023-03-14T13:26:20;1.83;;;1.10;;
68680;SDS011;55836;49.858;6.756;2023-03-14T13:28:46;2.20;;;2.00;;
68680;SDS011;55836;49.858;6.756;2023-03-14T13:31:20;2.33;;;1.10;;
68680;SDS011;55836;49.858;6.756;2023-03-14T13:33:49;1.20;;;0.80;;
68680;SDS011;55836;49.858;6.756;2023-03-14T13:36:21;0.80;;;0.80;;
68680;SDS011;55836;49.858;6.756;2023-03-14T13:38:54;1.13;;;0.93;;
68680;SDS011;55836;49.858;6.756;2023-03-14T13:41:22;2.77;;;1.00;;
68680;SDS011;55836;49.858;6.756;2023-03-14T13:43:49;1.70;;;1.10;;
68680;SDS011;55836;49.858;6.756;2023-03-14T13:46:21;1.70;;;1.20;;
68680;SDS011;55836;49.858;6.756;2023-03-14T13:48:52;1.47;;;1.00;;
68680;SDS011;55836;49.858;6.756;2023-03-14T13:51:19;1.10;;;1.00;;
68680;SDS011;55836;49.858;6.756;2023-03-14T13:53:49;1.93;;;1.70;;
68680;SDS011;55836;49.858;6.756;2023-03-14T13:56:17;3.23;;;1.43;;
68680;SDS011;55836;49.858;6.756;2023-03-14T13:58:43;3.20;;;1.03;;
68680;SDS011;55836;49.858;6.756;2023-03-14T14:01:13;5.13;;;1.90;;
68680;SDS011;55836;49.858;6.756;2023-03-14T14:03:40;4.97;;;2.23;;
68680;SDS011;55836;49.858;6.756;2023-03-14T14:06:16;2.13;;;0.97;;
68680;SDS011;55836;49.858;6.756;2023-03-14T14:08:45;1.17;;;0.80;;
68680;SDS011;55836;49.858;6.756;2023-03-14T14:11:15;5.33;;;2.47;;
68680;SDS011;55836;49.858;6.756;2023-03-14T14:13:44;5.03;;;2.30;;
68680;SDS011;55836;49.858;6.756;2023-03-14T14:16:20;1.37;;;1.10;;
68680;SDS011;55836;49.858;6.756;2023-03-14T14:18:47;1.70;;;1.10;;
68680;SDS011;55836;49.858;6.756;2023-03-14T14:21:13;2.83;;;1.00;;
68680;SDS011;55836;49.858;6.756;2023-03-14T14:23:40;2.47;;;1.00;;
68680;SDS011;55836;49.858;6.756;2023-03-14T14:26:06;3.43;;;1.67;;
68680;SDS011;55836;49.858;6.756;2023-03-14T14:28:33;4.53;;;0.90;;
68680;SDS011;55836;49.858;6.756;2023-03-14T14:33:28;2.37;;;1.23;;
68680;SDS011;55836;49.858;6.756;2023-03-14T14:35:58;2.00;;;0.90;;
68680;SDS011;55836;49.858;6.756;2023-03-14T14:38:25;2.97;;;1.40;;
68680;SDS011;55836;49.858;6.756;2023-03-14T14:40:56;2.97;;;1.10;;
68680;SDS011;55836;49.858;6.756;2023-03-14T14:43:26;1.73;;;1.13;;
68680;SDS011;55836;49.858;6.756;2023-03-14T14:45:54;4.67;;;1.70;;
68680;SDS011;55836;49.858;6.756;2023-03-14T14:48:22;2.80;;;1.30;;
68680;SDS011;55836;49.858;6.756;2023-03-14T14:50:50;1.33;;;1.10;;
68680;SDS011;55836;49.858;6.756;2023-03-14T14:56:37;2.57;;;1.10;;
68680;SDS011;55836;49.858;6.756;2023-03-14T14:58:41;2.63;;;1.77;;
68680;SDS011;55836;49.858;6.756;2023-03-14T15:03:33;4.17;;;1.10;;
68680;SDS011;55836;49.858;6.756;2023-03-14T15:06:01;2.00;;;1.27;;
68680;SDS011;55836;49.858;6.756;2023-03-14T15:08:27;3.07;;;0.93;;
68680;SDS011;55836;49.858;6.756;2023-03-14T15:10:54;3.60;;;1.40;;
68680;SDS011;55836;49.858;6.756;2023-03-14T15:13:20;2.13;;;1.93;;
68680;SDS011;55836;49.858;6.756;2023-03-14T15:15:46;6.20;;;2.60;;
68680;SDS011;55836;49.858;6.756;2023-03-14T15:18:13;3.27;;;1.67;;
68680;SDS011;55836;49.858;6.756;2023-03-14T15:20:40;3.43;;;1.80;;
68680;SDS011;55836;49.858;6.756;2023-03-14T15:23:10;2.90;;;1.37;;
68680;SDS011;55836;49.858;6.756;2023-03-14T15:25:36;3.07;;;1.00;;
68680;SDS011;55836;49.858;6.756;2023-03-14T15:28:05;2.43;;;1.10;;
68680;SDS011;55836;49.858;6.756;2023-03-14T15:30:35;2.93;;;1.13;;
68680;SDS011;55836;49.858;6.756;2023-03-14T15:33:01;3.90;;;1.20;;
68680;SDS011;55836;49.858;6.756;2023-03-14T15:35:27;5.53;;;2.87;;
68680;SDS011;55836;49.858;6.756;2023-03-14T15:37:53;2.83;;;1.30;;
68680;SDS011;55836;49.858;6.756;2023-03-14T15:40:20;1.77;;;1.20;;
68680;SDS011;55836;49.858;6.756;2023-03-14T15:42:47;1.63;;;0.90;;
68680;SDS011;55836;49.858;6.756;2023-03-14T15:45:13;2.70;;;0.90;;
68680;SDS011;55836;49.858;6.756;2023-03-14T15:47:39;4.03;;;1.40;;
68680;SDS011;55836;49.858;6.756;2023-03-14T15:50:05;3.33;;;1.40;;
68680;SDS011;55836;49.858;6.756;2023-03-14T15:52:34;6.10;;;2.40;;
68680;SDS011;55836;49.858;6.756;2023-03-14T15:55:00;4.30;;;1.20;;
68680;SDS011;55836;49.858;6.756;2023-03-14T15:57:26;4.07;;;1.47;;
68680;SDS011;55836;49.858;6.756;2023-03-14T15:59:52;2.50;;;1.37;;
68680;SDS011;55836;49.858;6.756;2023-03-14T16:02:18;3.23;;;1.20;;
68680;SDS011;55836;49.858;6.756;2023-03-14T16:04:45;3.93;;;1.30;;